sensor_id;sensor_type;location;lat;lon;timestamp;pressure;altitude;pressure_sealevel;temperature;humidity
15308;BME280;7755;52.208;6.964;2023-02-14T00:02:26;103152.25;;;3.47;100.00
15308;BME280;7755;52.208;6.964;2023-02-14T00:06:30;103152.41;;;3.46;100.00
15308;BME280;7755;52.208;6.964;2023-02-14T00:10:37;103145.56;;;3.42;100.00
15308;BME280;7755;52.208;6.964;2023-02-14T00:14:40;103141.31;;;3.39;100.00
15308;BME280;7755;52.208;6.964;2023-02-14T00:19:00;103143.41;;;3.36;100.00
15308;BME280;7755;52.208;6.964;2023-02-14T00:23:11;103141.09;;;3.31;100.00
15308;BME280;7755;52.208;6.964;2023-02-14T00:27:15;103135.03;;;3.29;100.00
15308;BME280;7755;52.208;6.964;2023-02-14T00:31:18;103135.41;;;3.24;100.00
15308;BME280;7755;52.208;6.964;2023-02-14T00:35:22;103136.53;;;3.22;100.00
15308;BME280;7755;52.208;6.964;2023-02-14T00:39:24;103128.16;;;3.15;100.00
15308;BME280;7755;52.208;6.964;2023-02-14T00:43:29;103128.28;;;3.14;100.00
15308;BME280;7755;52.208;6.964;2023-02-14T00:47:32;103128.66;;;3.09;100.00
15308;BME280;7755;52.208;6.964;2023-02-14T00:51:35;103125.66;;;3.03;100.00
15308;BME280;7755;52.208;6.964;2023-02-14T00:55:39;103133.72;;;3.03;100.00
15308;BME280;7755;52.208;6.964;2023-02-14T00:59:44;103130.31;;;3.00;100.00
15308;BME280;7755;52.208;6.964;2023-02-14T01:03:47;103133.25;;;2.97;100.00
15308;BME280;7755;52.208;6.964;2023-02-14T01:07:53;103136.94;;;2.96;100.00
15308;BME280;7755;52.208;6.964;2023-02-14T01:11:56;103145.13;;;2.95;100.00
15308;BME280;7755;52.208;6.964;2023-02-14T01:16:05;103143.44;;;2.94;100.00
15308;BME280;7755;52.208;6.964;2023-02-14T01:20:09;103139.19;;;2.91;100.00
15308;BME280;7755;52.208;6.964;2023-02-14T01:24:12;103135.03;;;2.87;100.00
15308;BME280;7755;52.208;6.964;2023-02-14T01:28:16;103132.59;;;2.84;100.00
15308;BME280;7755;52.208;6.964;2023-02-14T01:32:21;103133.72;;;2.82;100.00
15308;BME280;7755;52.208;6.964;2023-02-14T01:36:25;103139.22;;;2.80;100.00
15308;BME280;7755;52.208;6.964;2023-02-14T01:40:29;103141.28;;;2.77;100.00
15308;BME280;7755;52.208;6.964;2023-02-14T01:44:58;103133.75;;;2.70;100.00
15308;BME280;7755;52.208;6.964;2023-02-14T01:49:06;103135.72;;;2.68;100.00
15308;BME280;7755;52.208;6.964;2023-02-14T01:53:12;103137.34;;;2.60;100.00
15308;BME280;7755;52.208;6.964;2023-02-14T01:57:19;103144.69;;;2.58;100.00
15308;BME280;7755;52.208;6.964;2023-02-14T02:01:25;103141.25;;;2.56;100.00
15308;BME280;7755;52.208;6.964;2023-02-14T02:05:30;103141.41;;;2.54;100.00
15308;BME280;7755;52.208;6.964;2023-02-14T02:09:37;103137.16;;;2.52;100.00
15308;BME280;7755;52.208;6.964;2023-02-14T02:13:44;103135.41;;;2.51;100.00
15308;BME280;7755;52.208;6.964;2023-02-14T02:17:52;103133.00;;;2.47;100.00
15308;BME280;7755;52.208;6.964;2023-02-14T02:27:03;103121.69;;;2.44;100.00
15308;BME280;7755;52.208;6.964;2023-02-14T02:31:22;103122.63;;;2.43;100.00
15308;BME280;7755;52.208;6.964;2023-02-14T02:35:44;103112.16;;;2.40;100.00
15308;BME280;7755;52.208;6.964;2023-02-14T02:40:11;103107.03;;;2.37;100.00
15308;BME280;7755;52.208;6.964;2023-02-14T02:44:21;103112.53;;;2.35;100.00
15308;BME280;7755;52.208;6.964;2023-02-14T02:48:33;103098.53;;;2.32;100.00
15308;BME280;7755;52.208;6.964;2023-02-14T02:52:44;103099.63;;;2.29;100.00
15308;BME280;7755;52.208;6.964;2023-02-14T02:57:12;103099.03;;;2.26;100.00
15308;BME280;7755;52.208;6.964;2023-02-14T03:01:22;103097.56;;;2.22;100.00
15308;BME280;7755;52.208;6.964;2023-02-14T03:05:26;103098.94;;;2.16;100.00
15308;BME280;7755;52.208;6.964;2023-02-14T03:09:57;103096.88;;;2.08;100.00
15308;BME280;7755;52.208;6.964;2023-02-14T03:14:08;103093.47;;;2.06;100.00
15308;BME280;7755;52.208;6.964;2023-02-14T03:18:28;103093.84;;;2.02;100.00
15308;BME280;7755;52.208;6.964;2023-02-14T03:22:55;103102.03;;;2.00;100.00
15308;BME280;7755;52.208;6.964;2023-02-14T03:27:11;103088.88;;;1.97;100.00
15308;BME280;7755;52.208;6.964;2023-02-14T03:31:23;103093.25;;;1.98;100.00
15308;BME280;7755;52.208;6.964;2023-02-14T03:35:31;103092.66;;;1.95;100.00
15308;BME280;7755;52.208;6.964;2023-02-14T03:39:39;103086.56;;;1.92;100.00
15308;BME280;7755;52.208;6.964;2023-02-14T03:43:48;103088.53;;;1.90;100.00
15308;BME280;7755;52.208;6.964;2023-02-14T03:47:53;103086.94;;;1.88;100.00
15308;BME280;7755;52.208;6.964;2023-02-14T03:52:01;103081.97;;;1.83;100.00
15308;BME280;7755;52.208;6.964;2023-02-14T03:56:09;103081.69;;;1.75;100.00
15308;BME280;7755;52.208;6.964;2023-02-14T04:00:16;103087.47;;;1.71;100.00
15308;BME280;7755;52.208;6.964;2023-02-14T04:04:22;103090.16;;;1.71;100.00
15308;BME280;7755;52.208;6.964;2023-02-14T04:08:29;103086.84;;;1.67;100.00
15308;BME280;7755;52.208;6.964;2023-02-14T04:12:31;103085.41;;;1.63;100.00
15308;BME280;7755;52.208;6.964;2023-02-14T04:16:40;103083.06;;;1.58;100.00
15308;BME280;7755;52.208;6.964;2023-02-14T04:20:57;103082.34;;;1.56;100.00
15308;BME280;7755;52.208;6.964;2023-02-14T04:25:00;103077.09;;;1.55;100.00
15308;BME280;7755;52.208;6.964;2023-02-14T04:29:03;103078.47;;;1.49;100.00
15308;BME280;7755;52.208;6.964;2023-02-14T04:33:07;103077.13;;;1.44;100.00
15308;BME280;7755;52.208;6.964;2023-02-14T04:37:11;103086.38;;;1.40;100.00
15308;BME280;7755;52.208;6.964;2023-02-14T04:41:14;103086.38;;;1.40;100.00
15308;BME280;7755;52.208;6.964;2023-02-14T04:45:18;103072.25;;;1.38;100.00
15308;BME280;7755;52.208;6.964;2023-02-14T04:49:22;103072.38;;;1.36;100.00
15308;BME280;7755;52.208;6.964;2023-02-14T04:53:25;103062.59;;;1.35;100.00
15308;BME280;7755;52.208;6.964;2023-02-14T04:57:28;103053.00;;;1.32;100.00
15308;BME280;7755;52.208;6.964;2023-02-14T05:01:31;103055.06;;;1.29;100.00
15308;BME280;7755;52.208;6.964;2023-02-14T05:05:37;103056.78;;;1.30;100.00
15308;BME280;7755;52.208;6.964;2023-02-14T05:09:39;103050.56;;;1.29;100.00
15308;BME280;7755;52.208;6.964;2023-02-14T05:13:42;103052.41;;;1.29;100.00
15308;BME280;7755;52.208;6.964;2023-02-14T05:17:45;103049.94;;;1.26;100.00
15308;BME280;7755;52.208;6.964;2023-02-14T05:21:49;103047.41;;;1.24;100.00
15308;BME280;7755;52.208;6.964;2023-02-14T05:25:52;103052.25;;;1.19;100.00
15308;BME280;7755;52.208;6.964;2023-02-14T05:29:55;103053.47;;;1.15;100.00
15308;BME280;7755;52.208;6.964;2023-02-14T05:33:58;103049.34;;;1.11;100.00
15308;BME280;7755;52.208;6.964;2023-02-14T05:38:02;103057.38;;;1.11;100.00
15308;BME280;7755;52.208;6.964;2023-02-14T05:42:05;103053.00;;;1.10;100.00
15308;BME280;7755;52.208;6.964;2023-02-14T05:46:08;103051.88;;;1.13;100.00
15308;BME280;7755;52.208;6.964;2023-02-14T05:50:10;103041.19;;;1.24;100.00
15308;BME280;7755;52.208;6.964;2023-02-14T05:54:15;103047.53;;;1.23;100.00
15308;BME280;7755;52.208;6.964;2023-02-14T05:58:17;103043.25;;;1.20;100.00
15308;BME280;7755;52.208;6.964;2023-02-14T06:02:23;103048.97;;;1.16;100.00
15308;BME280;7755;52.208;6.964;2023-02-14T06:06:26;103050.91;;;1.14;100.00
15308;BME280;7755;52.208;6.964;2023-02-14T06:10:30;103054.81;;;1.09;100.00
15308;BME280;7755;52.208;6.964;2023-02-14T06:14:33;103051.50;;;1.06;100.00
15308;BME280;7755;52.208;6.964;2023-02-14T06:18:35;103058.81;;;1.04;100.00
15308;BME280;7755;52.208;6.964;2023-02-14T06:22:38;103060.66;;;1.03;100.00
15308;BME280;7755;52.208;6.964;2023-02-14T06:26:42;103064.41;;;1.01;100.00
15308;BME280;7755;52.208;6.964;2023-02-14T06:30:45;103071.72;;;0.99;100.00
15308;BME280;7755;52.208;6.964;2023-02-14T06:34:48;103067.47;;;0.96;100.00
15308;BME280;7755;52.208;6.964;2023-02-14T06:38:51;103069.50;;;0.93;100.00
15308;BME280;7755;52.208;6.964;2023-02-14T06:42:56;103080.47;;;0.90;100.00
15308;BME280;7755;52.208;6.964;2023-02-14T06:46:59;103074.50;;;0.86;100.00
15308;BME280;7755;52.208;6.964;2023-02-14T06:51:01;103076.44;;;0.84;100.00
15308;BME280;7755;52.208;6.964;2023-02-14T06:55:05;103069.72;;;0.78;100.00
15308;BME280;7755;52.208;6.964;2023-02-14T06:59:09;103074.81;;;0.70;100.00
15308;BME280;7755;52.208;6.964;2023-02-14T07:03:12;103077.97;;;0.64;100.00
15308;BME280;7755;52.208;6.964;2023-02-14T07:07:15;103070.19;;;0.61;100.00
15308;BME280;7755;52.208;6.964;2023-02-14T07:11:18;103075.63;;;0.60;100.00
15308;BME280;7755;52.208;6.964;2023-02-14T07:15:22;103077.72;;;0.56;100.00
15308;BME280;7755;52.208;6.964;2023-02-14T07:19:25;103075.75;;;0.58;100.00
15308;BME280;7755;52.208;6.964;2023-02-14T07:23:28;103081.84;;;0.60;100.00
15308;BME280;7755;52.208;6.964;2023-02-14T07:27:31;103084.19;;;0.65;100.00
15308;BME280;7755;52.208;6.964;2023-02-14T07:31:35;103072.38;;;0.67;100.00
15308;BME280;7755;52.208;6.964;2023-02-14T07:35:38;103075.56;;;0.72;100.00
15308;BME280;7755;52.208;6.964;2023-02-14T07:39:41;103081.53;;;0.76;100.00
15308;BME280;7755;52.208;6.964;2023-02-14T07:43:44;103077.53;;;0.81;100.00
15308;BME280;7755;52.208;6.964;2023-02-14T07:47:49;103082.53;;;0.86;100.00
15308;BME280;7755;52.208;6.964;2023-02-14T07:51:52;103084.72;;;0.92;100.00
15308;BME280;7755;52.208;6.964;2023-02-14T07:55:55;103088.63;;;0.99;100.00
15308;BME280;7755;52.208;6.964;2023-02-14T07:59:58;103078.56;;;1.03;100.00
15308;BME280;7755;52.208;6.964;2023-02-14T08:04:02;103088.88;;;1.07;100.00
15308;BME280;7755;52.208;6.964;2023-02-14T08:08:05;103081.34;;;1.13;100.00
15308;BME280;7755;52.208;6.964;2023-02-14T08:12:08;103094.53;;;1.16;100.00
15308;BME280;7755;52.208;6.964;2023-02-14T08:16:29;103088.91;;;1.19;100.00
15308;BME280;7755;52.208;6.964;2023-02-14T08:20:34;103088.56;;;1.23;100.00
15308;BME280;7755;52.208;6.964;2023-02-14T08:24:37;103084.56;;;1.29;100.00
15308;BME280;7755;52.208;6.964;2023-02-14T08:28:39;103084.91;;;1.35;100.00
15308;BME280;7755;52.208;6.964;2023-02-14T08:32:42;103094.06;;;1.44;100.00
15308;BME280;7755;52.208;6.964;2023-02-14T08:36:47;103081.00;;;1.51;100.00
15308;BME280;7755;52.208;6.964;2023-02-14T08:40:49;103079.69;;;1.56;100.00
15308;BME280;7755;52.208;6.964;2023-02-14T08:44:52;103079.91;;;1.64;100.00
15308;BME280;7755;52.208;6.964;2023-02-14T08:48:55;103077.31;;;1.74;100.00
15308;BME280;7755;52.208;6.964;2023-02-14T08:52:59;103076.34;;;1.86;100.00
15308;BME280;7755;52.208;6.964;2023-02-14T08:57:02;103071.81;;;1.98;100.00
15308;BME280;7755;52.208;6.964;2023-02-14T09:01:07;103078.84;;;2.10;100.00
15308;BME280;7755;52.208;6.964;2023-02-14T09:05:10;103067.06;;;2.23;100.00
15308;BME280;7755;52.208;6.964;2023-02-14T09:09:15;103062.00;;;2.40;100.00
15308;BME280;7755;52.208;6.964;2023-02-14T09:13:19;103068.53;;;2.59;100.00
15308;BME280;7755;52.208;6.964;2023-02-14T09:17:22;103072.31;;;2.77;100.00
15308;BME280;7755;52.208;6.964;2023-02-14T09:21:27;103067.66;;;3.00;100.00
15308;BME280;7755;52.208;6.964;2023-02-14T09:25:32;103065.13;;;3.29;100.00
15308;BME280;7755;52.208;6.964;2023-02-14T09:29:35;103053.50;;;3.59;100.00
15308;BME280;7755;52.208;6.964;2023-02-14T09:33:38;103061.91;;;3.85;100.00
15308;BME280;7755;52.208;6.964;2023-02-14T09:37:41;103058.84;;;4.09;100.00
15308;BME280;7755;52.208;6.964;2023-02-14T09:42:00;103058.41;;;4.33;100.00
15308;BME280;7755;52.208;6.964;2023-02-14T09:46:08;103062.13;;;4.61;100.00
15308;BME280;7755;52.208;6.964;2023-02-14T09:50:18;103046.75;;;4.81;100.00
15308;BME280;7755;52.208;6.964;2023-02-14T09:54:25;103046.88;;;4.99;100.00
15308;BME280;7755;52.208;6.964;2023-02-14T09:58:33;103044.25;;;5.16;100.00
15308;BME280;7755;52.208;6.964;2023-02-14T10:02:43;103046.72;;;5.37;100.00
15308;BME280;7755;52.208;6.964;2023-02-14T10:06:54;103043.09;;;5.56;100.00
15308;BME280;7755;52.208;6.964;2023-02-14T10:11:02;103035.34;;;5.71;100.00
15308;BME280;7755;52.208;6.964;2023-02-14T10:15:13;103031.97;;;5.87;100.00
15308;BME280;7755;52.208;6.964;2023-02-14T10:19:21;103026.31;;;6.08;100.00
15308;BME280;7755;52.208;6.964;2023-02-14T10:23:29;103028.41;;;6.32;100.00
15308;BME280;7755;52.208;6.964;2023-02-14T10:27:35;103023.50;;;6.53;100.00
15308;BME280;7755;52.208;6.964;2023-02-14T10:31:45;103021.78;;;6.70;100.00
15308;BME280;7755;52.208;6.964;2023-02-14T10:35:59;103015.34;;;6.97;100.00
15308;BME280;7755;52.208;6.964;2023-02-14T10:40:19;103010.91;;;7.14;100.00
15308;BME280;7755;52.208;6.964;2023-02-14T10:44:35;103008.97;;;7.32;100.00
15308;BME280;7755;52.208;6.964;2023-02-14T10:48:51;103005.28;;;7.41;100.00
15308;BME280;7755;52.208;6.964;2023-02-14T10:53:02;103008.22;;;7.56;100.00
15308;BME280;7755;52.208;6.964;2023-02-14T10:57:13;103001.50;;;7.76;100.00
15308;BME280;7755;52.208;6.964;2023-02-14T11:01:18;103001.56;;;7.92;100.00
15308;BME280;7755;52.208;6.964;2023-02-14T11:05:28;103000.72;;;8.00;100.00
15308;BME280;7755;52.208;6.964;2023-02-14T11:09:32;102996.81;;;8.19;100.00
15308;BME280;7755;52.208;6.964;2023-02-14T11:13:37;103005.69;;;8.37;100.00
15308;BME280;7755;52.208;6.964;2023-02-14T11:17:41;102996.00;;;8.59;100.00
15308;BME280;7755;52.208;6.964;2023-02-14T11:21:46;102998.16;;;8.80;100.00
15308;BME280;7755;52.208;6.964;2023-02-14T11:25:53;102999.03;;;8.89;100.00
15308;BME280;7755;52.208;6.964;2023-02-14T11:29:57;102995.94;;;9.00;100.00
15308;BME280;7755;52.208;6.964;2023-02-14T11:34:05;102977.91;;;9.15;100.00
15308;BME280;7755;52.208;6.964;2023-02-14T11:38:26;102980.88;;;9.37;100.00
15308;BME280;7755;52.208;6.964;2023-02-14T11:42:39;102977.19;;;9.61;100.00
15308;BME280;7755;52.208;6.964;2023-02-14T11:46:43;102959.16;;;9.68;100.00
15308;BME280;7755;52.208;6.964;2023-02-14T11:50:56;102960.94;;;9.83;100.00
15308;BME280;7755;52.208;6.964;2023-02-14T11:55:02;102949.63;;;9.95;100.00
15308;BME280;7755;52.208;6.964;2023-02-14T11:59:06;102945.13;;;10.10;100.00
15308;BME280;7755;52.208;6.964;2023-02-14T12:03:16;102945.38;;;10.23;100.00
15308;BME280;7755;52.208;6.964;2023-02-14T12:07:24;102934.16;;;10.41;100.00
15308;BME280;7755;52.208;6.964;2023-02-14T12:11:29;102925.66;;;10.59;100.00
15308;BME280;7755;52.208;6.964;2023-02-14T12:15:35;102925.53;;;10.97;100.00
15308;BME280;7755;52.208;6.964;2023-02-14T12:19:41;102918.47;;;11.32;100.00
15308;BME280;7755;52.208;6.964;2023-02-14T12:23:51;102912.31;;;11.44;98.47
15308;BME280;7755;52.208;6.964;2023-02-14T12:28:02;102905.75;;;11.54;97.75
15308;BME280;7755;52.208;6.964;2023-02-14T12:32:15;102900.50;;;11.73;96.49
15308;BME280;7755;52.208;6.964;2023-02-14T12:36:32;102892.13;;;11.96;95.53
15308;BME280;7755;52.208;6.964;2023-02-14T12:40:46;102890.06;;;12.20;95.00
15308;BME280;7755;52.208;6.964;2023-02-14T12:45:00;102885.91;;;12.30;92.47
15308;BME280;7755;52.208;6.964;2023-02-14T12:49:28;102877.63;;;12.45;90.25
15308;BME280;7755;52.208;6.964;2023-02-14T12:54:01;102878.09;;;12.49;90.77
15308;BME280;7755;52.208;6.964;2023-02-14T12:58:20;102872.25;;;12.58;88.38
15308;BME280;7755;52.208;6.964;2023-02-14T13:07:16;102865.47;;;12.48;88.00
15308;BME280;7755;52.208;6.964;2023-02-14T13:11:33;102850.00;;;12.55;89.00
15308;BME280;7755;52.208;6.964;2023-02-14T13:15:43;102842.09;;;12.67;87.57
15308;BME280;7755;52.208;6.964;2023-02-14T13:19:57;102842.09;;;12.73;87.46
15308;BME280;7755;52.208;6.964;2023-02-14T13:24:13;102831.84;;;12.75;86.40
15308;BME280;7755;52.208;6.964;2023-02-14T13:28:17;102834.16;;;12.78;86.60
15308;BME280;7755;52.208;6.964;2023-02-14T13:32:25;102833.53;;;12.83;85.77
15308;BME280;7755;52.208;6.964;2023-02-14T13:36:30;102826.25;;;12.97;85.53
15308;BME280;7755;52.208;6.964;2023-02-14T13:40:34;102810.53;;;13.05;83.85
15308;BME280;7755;52.208;6.964;2023-02-14T13:44:42;102821.47;;;13.12;82.94
15308;BME280;7755;52.208;6.964;2023-02-14T13:48:57;102807.19;;;13.17;82.65
15308;BME280;7755;52.208;6.964;2023-02-14T13:53:11;102797.38;;;13.29;82.92
15308;BME280;7755;52.208;6.964;2023-02-14T13:57:26;102796.13;;;13.31;80.17
15308;BME280;7755;52.208;6.964;2023-02-14T14:01:36;102793.00;;;13.34;81.34
15308;BME280;7755;52.208;6.964;2023-02-14T14:06:02;102782.91;;;13.28;81.40
15308;BME280;7755;52.208;6.964;2023-02-14T14:10:10;102785.63;;;13.35;81.63
15308;BME280;7755;52.208;6.964;2023-02-14T14:14:33;102780.38;;;13.47;81.01
15308;BME280;7755;52.208;6.964;2023-02-14T14:18:41;102789.00;;;13.50;80.13
15308;BME280;7755;52.208;6.964;2023-02-14T14:22:46;102786.47;;;13.35;78.58
15308;BME280;7755;52.208;6.964;2023-02-14T14:26:57;102777.63;;;13.33;79.11
15308;BME280;7755;52.208;6.964;2023-02-14T14:31:01;102778.69;;;13.46;79.50
15308;BME280;7755;52.208;6.964;2023-02-14T14:35:18;102782.06;;;13.48;79.07
15308;BME280;7755;52.208;6.964;2023-02-14T14:39:26;102776.41;;;13.49;78.46
15308;BME280;7755;52.208;6.964;2023-02-14T14:43:32;102773.66;;;13.43;78.85
15308;BME280;7755;52.208;6.964;2023-02-14T14:47:40;102765.03;;;13.39;78.58
15308;BME280;7755;52.208;6.964;2023-02-14T14:51:44;102764.41;;;13.37;78.36
15308;BME280;7755;52.208;6.964;2023-02-14T14:55:48;102757.03;;;13.31;78.93
15308;BME280;7755;52.208;6.964;2023-02-14T15:00:06;102762.03;;;13.21;79.14
15308;BME280;7755;52.208;6.964;2023-02-14T15:04:16;102752.16;;;13.20;79.02
15308;BME280;7755;52.208;6.964;2023-02-14T15:08:21;102747.72;;;13.19;79.06
15308;BME280;7755;52.208;6.964;2023-02-14T15:12:33;102749.38;;;13.06;78.87
15308;BME280;7755;52.208;6.964;2023-02-14T15:16:58;102752.34;;;13.05;79.39
15308;BME280;7755;52.208;6.964;2023-02-14T15:21:02;102738.66;;;12.98;79.17
15308;BME280;7755;52.208;6.964;2023-02-14T15:25:09;102741.81;;;12.95;79.83
15308;BME280;7755;52.208;6.964;2023-02-14T15:29:20;102746.00;;;12.91;79.91
15308;BME280;7755;52.208;6.964;2023-02-14T15:33:25;102742.38;;;12.77;80.79
15308;BME280;7755;52.208;6.964;2023-02-14T15:37:30;102738.38;;;12.67;81.10
15308;BME280;7755;52.208;6.964;2023-02-14T15:41:34;102733.88;;;12.52;81.09
15308;BME280;7755;52.208;6.964;2023-02-14T15:45:37;102738.91;;;12.42;81.07
15308;BME280;7755;52.208;6.964;2023-02-14T15:49:43;102736.75;;;12.31;81.32
15308;BME280;7755;52.208;6.964;2023-02-14T15:53:51;102734.81;;;12.25;81.94
15308;BME280;7755;52.208;6.964;2023-02-14T15:57:56;102729.28;;;12.12;82.26
15308;BME280;7755;52.208;6.964;2023-02-14T16:02:02;102719.81;;;12.01;82.76
15308;BME280;7755;52.208;6.964;2023-02-14T16:06:13;102720.81;;;11.93;83.34
15308;BME280;7755;52.208;6.964;2023-02-14T16:10:22;102717.13;;;11.80;83.85
15308;BME280;7755;52.208;6.964;2023-02-14T16:14:29;102718.13;;;11.72;84.20
15308;BME280;7755;52.208;6.964;2023-02-14T16:18:35;102715.28;;;11.59;85.14
15308;BME280;7755;52.208;6.964;2023-02-14T16:22:39;102718.09;;;11.44;85.78
15308;BME280;7755;52.208;6.964;2023-02-14T16:26:43;102727.19;;;11.30;86.29
15308;BME280;7755;52.208;6.964;2023-02-14T16:30:52;102720.53;;;11.11;87.25
15308;BME280;7755;52.208;6.964;2023-02-14T16:34:56;102726.00;;;10.96;88.09
15308;BME280;7755;52.208;6.964;2023-02-14T16:39:01;102728.34;;;10.78;89.19
15308;BME280;7755;52.208;6.964;2023-02-14T16:43:07;102724.34;;;10.59;89.80
15308;BME280;7755;52.208;6.964;2023-02-14T16:47:14;102728.91;;;10.37;90.66
15308;BME280;7755;52.208;6.964;2023-02-14T16:51:20;102737.41;;;10.19;91.40
15308;BME280;7755;52.208;6.964;2023-02-14T16:55:24;102734.00;;;10.02;92.02
15308;BME280;7755;52.208;6.964;2023-02-14T16:59:30;102729.16;;;9.83;92.56
15308;BME280;7755;52.208;6.964;2023-02-14T17:03:33;102733.25;;;9.64;94.07
15308;BME280;7755;52.208;6.964;2023-02-14T17:07:37;102740.34;;;9.50;94.88
15308;BME280;7755;52.208;6.964;2023-02-14T17:11:45;102742.81;;;9.37;95.30
15308;BME280;7755;52.208;6.964;2023-02-14T17:15:49;102742.78;;;9.22;95.46
15308;BME280;7755;52.208;6.964;2023-02-14T17:19:53;102741.00;;;9.07;95.83
15308;BME280;7755;52.208;6.964;2023-02-14T17:23:56;102733.00;;;8.90;96.58
15308;BME280;7755;52.208;6.964;2023-02-14T17:28:00;102737.50;;;8.75;96.53
15308;BME280;7755;52.208;6.964;2023-02-14T17:32:03;102736.72;;;8.58;96.47
15308;BME280;7755;52.208;6.964;2023-02-14T17:36:09;102745.28;;;8.39;97.34
15308;BME280;7755;52.208;6.964;2023-02-14T17:40:13;102737.53;;;8.19;98.23
15308;BME280;7755;52.208;6.964;2023-02-14T17:44:17;102734.56;;;7.98;98.79
15308;BME280;7755;52.208;6.964;2023-02-14T17:48:20;102740.19;;;7.80;100.00
15308;BME280;7755;52.208;6.964;2023-02-14T17:52:23;102739.53;;;7.70;100.00
15308;BME280;7755;52.208;6.964;2023-02-14T17:56:27;102740.38;;;7.62;100.00
15308;BME280;7755;52.208;6.964;2023-02-14T18:00:31;102746.97;;;7.52;100.00
15308;BME280;7755;52.208;6.964;2023-02-14T18:04:34;102740.41;;;7.38;100.00
15308;BME280;7755;52.208;6.964;2023-02-14T18:08:39;102746.34;;;7.25;100.00
15308;BME280;7755;52.208;6.964;2023-02-14T18:12:43;102737.03;;;7.11;100.00
15308;BME280;7755;52.208;6.964;2023-02-14T18:16:47;102740.88;;;7.01;100.00
15308;BME280;7755;52.208;6.964;2023-02-14T18:20:53;102732.06;;;6.91;100.00
15308;BME280;7755;52.208;6.964;2023-02-14T18:24:56;102734.44;;;6.77;100.00
15308;BME280;7755;52.208;6.964;2023-02-14T18:29:00;102730.00;;;6.68;100.00
15308;BME280;7755;52.208;6.964;2023-02-14T18:33:08;102729.31;;;6.58;100.00
15308;BME280;7755;52.208;6.964;2023-02-14T18:37:12;102725.88;;;6.48;100.00
15308;BME280;7755;52.208;6.964;2023-02-14T18:41:17;102724.84;;;6.41;100.00
15308;BME280;7755;52.208;6.964;2023-02-14T18:45:20;102709.63;;;6.32;100.00
15308;BME280;7755;52.208;6.964;2023-02-14T18:49:24;102703.03;;;6.26;100.00
15308;BME280;7755;52.208;6.964;2023-02-14T18:53:27;102699.28;;;6.19;100.00
15308;BME280;7755;52.208;6.964;2023-02-14T18:57:32;102690.81;;;6.14;100.00
15308;BME280;7755;52.208;6.964;2023-02-14T19:01:37;102699.06;;;6.04;100.00
15308;BME280;7755;52.208;6.964;2023-02-14T19:05:43;102689.81;;;5.89;100.00
15308;BME280;7755;52.208;6.964;2023-02-14T19:09:46;102696.00;;;5.81;100.00
15308;BME280;7755;52.208;6.964;2023-02-14T19:13:51;102691.25;;;5.75;100.00
15308;BME280;7755;52.208;6.964;2023-02-14T19:17:54;102698.47;;;5.66;100.00
15308;BME280;7755;52.208;6.964;2023-02-14T19:21:59;102695.34;;;5.53;100.00
15308;BME280;7755;52.208;6.964;2023-02-14T19:26:08;102695.91;;;5.39;100.00
15308;BME280;7755;52.208;6.964;2023-02-14T19:30:12;102693.78;;;5.25;100.00
15308;BME280;7755;52.208;6.964;2023-02-14T19:34:17;102689.00;;;5.18;100.00
15308;BME280;7755;52.208;6.964;2023-02-14T19:38:21;102694.88;;;5.14;100.00
15308;BME280;7755;52.208;6.964;2023-02-14T19:42:24;102693.66;;;5.08;100.00
15308;BME280;7755;52.208;6.964;2023-02-14T19:46:27;102680.09;;;5.00;100.00
15308;BME280;7755;52.208;6.964;2023-02-14T19:50:30;102690.88;;;5.00;100.00
15308;BME280;7755;52.208;6.964;2023-02-14T19:54:38;102683.56;;;4.92;100.00
15308;BME280;7755;52.208;6.964;2023-02-14T19:58:41;102675.09;;;4.87;100.00
15308;BME280;7755;52.208;6.964;2023-02-14T20:02:43;102665.63;;;4.83;100.00
15308;BME280;7755;52.208;6.964;2023-02-14T20:06:50;102665.81;;;4.82;100.00
15308;BME280;7755;52.208;6.964;2023-02-14T20:10:54;102660.19;;;4.75;100.00
15308;BME280;7755;52.208;6.964;2023-02-14T20:14:57;102666.69;;;4.73;100.00
15308;BME280;7755;52.208;6.964;2023-02-14T20:19:01;102667.25;;;4.58;100.00
15308;BME280;7755;52.208;6.964;2023-02-14T20:23:04;102658.91;;;4.52;100.00
15308;BME280;7755;52.208;6.964;2023-02-14T20:27:08;102651.16;;;4.49;100.00
15308;BME280;7755;52.208;6.964;2023-02-14T20:31:13;102653.06;;;4.38;100.00
15308;BME280;7755;52.208;6.964;2023-02-14T20:35:16;102640.50;;;4.29;100.00
15308;BME280;7755;52.208;6.964;2023-02-14T20:39:20;102636.41;;;4.25;100.00
15308;BME280;7755;52.208;6.964;2023-02-14T20:43:24;102637.56;;;4.23;100.00
15308;BME280;7755;52.208;6.964;2023-02-14T20:47:27;102638.88;;;4.19;100.00
15308;BME280;7755;52.208;6.964;2023-02-14T20:51:30;102642.03;;;4.14;100.00
15308;BME280;7755;52.208;6.964;2023-02-14T20:55:33;102638.38;;;4.05;100.00
15308;BME280;7755;52.208;6.964;2023-02-14T20:59:43;102634.91;;;3.95;100.00
15308;BME280;7755;52.208;6.964;2023-02-14T21:03:49;102636.91;;;3.93;100.00
15308;BME280;7755;52.208;6.964;2023-02-14T21:07:52;102629.81;;;3.92;100.00
15308;BME280;7755;52.208;6.964;2023-02-14T21:11:55;102636.50;;;3.88;100.00
15308;BME280;7755;52.208;6.964;2023-02-14T21:16:02;102630.88;;;3.81;100.00
15308;BME280;7755;52.208;6.964;2023-02-14T21:20:06;102633.84;;;3.78;100.00
15308;BME280;7755;52.208;6.964;2023-02-14T21:24:12;102630.44;;;3.76;100.00
15308;BME280;7755;52.208;6.964;2023-02-14T21:28:15;102622.69;;;3.73;100.00
15308;BME280;7755;52.208;6.964;2023-02-14T21:32:19;102625.81;;;3.69;100.00
15308;BME280;7755;52.208;6.964;2023-02-14T21:36:24;102615.81;;;3.61;100.00
15308;BME280;7755;52.208;6.964;2023-02-14T21:40:27;102625.59;;;3.52;100.00
15308;BME280;7755;52.208;6.964;2023-02-14T21:44:30;102618.13;;;3.46;100.00
15308;BME280;7755;52.208;6.964;2023-02-14T21:48:52;102613.50;;;3.39;100.00
15308;BME280;7755;52.208;6.964;2023-02-14T21:53:13;102616.59;;;3.34;100.00
15308;BME280;7755;52.208;6.964;2023-02-14T21:57:16;102608.69;;;3.33;100.00